Time;durP1;ratioP1;P1;durP2;ratioP2;P2;SDS_P1;SDS_P2;PMS_P1;PMS_P2;Temp;Humidity;BMP_temperature;BMP_pressure;BME280_temperature;BME280_humidity;BME280_pressure;Samples;Min_cycle;Max_cycle;Signal;HPM_P1;HPM_P2
2024/02/05 00:01:19;;;;;;;;;5.33;3.67;;;;;11.42;71.52;102646.03;5038382;28;65463;-48
2024/02/05 00:03:45;;;;;;;;;2.67;2.00;;;;;11.45;71.38;102644.22;5045428;28;75611;-47
2024/02/05 00:06:12;;;;;;;;;7.00;3.00;;;;;11.43;70.98;102641.56;5045301;28;63362;-48
2024/02/05 00:08:37;;;;;;;;;5.00;3.33;;;;;11.38;71.05;102644.38;5043145;28;45472;-49
2024/02/05 00:11:03;;;;;;;;;3.33;3.00;;;;;11.35;71.12;102641.75;5044904;28;45304;-50
2024/02/05 00:13:28;;;;;;;;;4.00;2.00;;;;;11.34;71.10;102652.47;5050155;28;46819;-47
2024/02/05 00:15:54;;;;;;;;;5.00;4.00;;;;;11.36;71.24;102648.84;5023166;28;71186;-49
2024/02/05 00:18:20;;;;;;;;;4.33;2.00;;;;;11.34;70.99;102645.34;5044454;28;45367;-51
2024/02/05 00:20:45;;;;;;;;;5.67;4.00;;;;;11.35;71.22;102643.56;5028972;28;45631;-50
2024/02/05 00:23:11;;;;;;;;;4.33;3.00;;;;;11.36;71.12;102645.31;5054408;28;71125;-51
2024/02/05 00:25:37;;;;;;;;;3.67;3.67;;;;;11.39;71.11;102648.78;5039275;28;45726;-51
2024/02/05 00:28:03;;;;;;;;;2.33;2.33;;;;;11.40;71.18;102650.50;5045832;28;45539;-49
2024/02/05 00:30:29;;;;;;;;;4.67;2.33;;;;;11.41;70.97;102640.75;5045096;28;45538;-50
2024/02/05 00:32:54;;;;;;;;;6.00;2.67;;;;;11.45;70.94;102649.56;5039046;28;46191;-49
2024/02/05 00:35:19;;;;;;;;;6.00;3.00;;;;;11.47;70.89;102645.03;5048848;28;73039;-48
2024/02/05 00:37:45;;;;;;;;;8.00;4.00;;;;;11.48;70.86;102644.13;5039428;28;70453;-51
2024/02/05 00:40:10;;;;;;;;;5.00;2.67;;;;;11.48;70.76;102647.66;5040966;28;64061;-49
2024/02/05 00:42:36;;;;;;;;;2.67;2.67;;;;;11.45;70.64;102647.75;5048342;28;46137;-49
2024/02/05 00:45:01;;;;;;;;;8.00;3.00;;;;;11.44;70.64;102642.47;5033400;28;45472;-50
2024/02/05 00:47:27;;;;;;;;;2.00;2.00;;;;;11.42;70.58;102638.03;5044186;28;45381;-50
2024/02/05 00:49:52;;;;;;;;;3.00;3.00;;;;;11.46;70.72;102646.84;5044563;28;45800;-47
2024/02/05 00:52:17;;;;;;;;;6.00;3.00;;;;;11.47;70.62;102645.94;5047328;28;74817;-49
2024/02/05 00:54:43;;;;;;;;;2.67;2.67;;;;;11.48;70.45;102638.81;5038139;28;72177;-49
2024/02/05 00:57:08;;;;;;;;;9.00;3.00;;;;;11.48;70.32;102638.81;5037393;28;65473;-51
2024/02/05 00:59:34;;;;;;;;;2.67;2.00;;;;;11.47;70.45;102645.94;5038627;28;45617;-46
2024/02/05 01:02:00;;;;;;;;;4.00;2.67;;;;;11.50;70.29;102642.28;5047643;28;46006;-49
2024/02/05 01:04:26;;;;;;;;;3.33;2.00;;;;;11.51;70.52;102642.28;5047120;28;45277;-49
2024/02/05 01:06:53;;;;;;;;;4.00;2.67;;;;;11.51;70.37;102634.28;5046173;28;45364;-48
2024/02/05 01:09:18;;;;;;;;;6.00;4.00;;;;;11.49;70.08;102635.25;5039959;28;45470;-47
2024/02/05 01:11:46;;;;;;;;;4.00;2.33;;;;;11.50;70.25;102635.19;5037422;28;46300;-50
2024/02/05 01:14:12;;;;;;;;;2.67;1.00;;;;;11.49;70.25;102633.44;5033754;28;45400;-51
2024/02/05 01:16:37;;;;;;;;;5.67;3.00;;;;;11.51;70.25;102641.38;5035729;28;49665;-49
2024/02/05 01:19:02;;;;;;;;;3.00;3.00;;;;;11.51;70.01;102630.72;5046591;28;45372;-48
2024/02/05 01:21:28;;;;;;;;;3.33;2.67;;;;;11.49;70.17;102630.78;5037117;28;47595;-46
2024/02/05 01:23:53;;;;;;;;;4.00;2.00;;;;;11.51;70.15;102622.72;5042531;28;45277;-48
2024/02/05 01:26:18;;;;;;;;;4.67;3.00;;;;;11.51;70.34;102628.06;5051611;28;56369;-48
2024/02/05 01:28:44;;;;;;;;;3.67;2.67;;;;;11.51;69.78;102625.41;5046674;28;45220;-48
2024/02/05 01:31:10;;;;;;;;;2.00;2.00;;;;;11.51;69.88;102628.06;5043102;28;46085;-47
2024/02/05 01:33:35;;;;;;;;;3.00;2.00;;;;;11.51;69.96;102620.06;5043126;28;45403;-50
2024/02/05 01:36:01;;;;;;;;;5.33;3.00;;;;;11.51;69.92;102622.72;5052625;28;45327;-49
2024/02/05 01:38:26;;;;;;;;;7.33;3.00;;;;;11.52;69.90;102622.69;5040224;28;70845;-47
2024/02/05 01:40:51;;;;;;;;;4.00;2.00;;;;;11.54;69.98;102617.34;5053464;28;74434;-48
2024/02/05 01:43:17;;;;;;;;;5.33;2.00;;;;;11.54;69.84;102617.34;5023049;28;72625;-48
2024/02/05 01:45:43;;;;;;;;;3.00;2.00;;;;;11.52;69.82;102612.03;5051180;28;45438;-49
2024/02/05 01:48:08;;;;;;;;;3.67;2.00;;;;;11.54;69.80;102609.34;5049213;28;45525;-48
2024/02/05 01:50:36;;;;;;;;;4.33;3.00;;;;;11.54;69.70;102609.34;5044301;28;59554;-47
2024/02/05 01:53:04;;;;;;;;;2.00;2.00;;;;;11.55;69.87;102608.41;5046054;28;45463;-48
2024/02/05 01:55:29;;;;;;;;;2.33;2.00;;;;;11.52;69.64;102611.16;5051824;28;45307;-50
2024/02/05 01:57:55;;;;;;;;;3.00;2.00;;;;;11.52;69.81;102609.38;5046537;28;70477;-50
2024/02/05 02:00:21;;;;;;;;;8.00;2.00;;;;;11.52;69.92;102613.81;5037469;28;45554;-51
2024/02/05 02:02:47;;;;;;;;;1.00;1.00;;;;;11.49;69.61;102616.59;5042587;28;45537;-50
2024/02/05 02:05:13;;;;;;;;;2.33;2.00;;;;;11.47;69.60;102607.75;5037207;28;68130;-49
2024/02/05 02:07:39;;;;;;;;;4.33;2.00;;;;;11.44;69.52;102610.50;5038695;28;45561;-49
2024/02/05 02:10:05;;;;;;;;;2.00;1.00;;;;;11.40;69.63;102604.34;5027469;28;46879;-50
2024/02/05 02:12:30;;;;;;;;;5.00;2.33;;;;;11.40;69.66;102615.00;5051547;28;45743;-48
2024/02/05 02:14:56;;;;;;;;;2.00;2.00;;;;;11.41;69.78;102600.78;5057679;28;45323;-50
2024/02/05 02:17:23;;;;;;;;;2.67;2.33;;;;;11.41;69.58;102609.63;5051890;28;56057;-48
2024/02/05 02:19:51;;;;;;;;;3.00;1.00;;;;;11.40;69.69;102605.22;5046054;28;75554;-47
2024/02/05 02:22:32;;;;;;;;;1.00;1.00;;;;;11.41;69.89;102604.31;5030130;28;45805;-45
2024/02/05 02:24:59;;;;;;;;;7.00;1.00;;;;;11.45;69.81;102606.91;5053779;28;45452;-45
2024/02/05 02:27:24;;;;;;;;;2.33;2.33;;;;;11.46;69.70;102612.22;5052584;28;45369;-44
2024/02/05 02:29:50;;;;;;;;;4.00;1.67;;;;;11.46;69.66;102598.88;5045547;28;61184;-48
2024/02/05 02:32:40;;;;;;;;;2.00;0.00;;;;;11.47;69.62;102607.75;5043058;28;73207;-51
2024/02/05 02:35:15;;;;;;;;;2.00;0.67;;;;;11.45;69.59;102605.13;5043162;28;45725;-51
2024/02/05 02:37:49;;;;;;;;;4.33;3.33;;;;;11.49;69.87;102600.59;5036960;28;45597;-46
2024/02/05 02:40:15;;;;;;;;;1.00;1.00;;;;;11.47;69.52;102595.31;5030177;28;46505;-47
2024/02/05 02:42:43;;;;;;;;;2.00;2.00;;;;;11.46;69.41;102608.66;5032229;28;72020;-46
2024/02/05 02:45:11;;;;;;;;;1.00;1.00;;;;;11.45;69.48;102597.13;5024804;28;45404;-47
2024/02/05 02:47:36;;;;;;;;;3.00;1.33;;;;;11.46;69.47;102603.31;5027720;28;46122;-48
2024/02/05 02:50:03;;;;;;;;;2.67;2.00;;;;;11.42;69.18;102607.88;5026154;28;47163;-47
2024/02/05 02:52:28;;;;;;;;;2.33;2.00;;;;;11.37;69.27;102602.63;5029868;28;45544;-43
2024/02/05 02:54:54;;;;;;;;;2.00;2.00;;;;;11.37;69.33;102599.97;5027332;28;45515;-47
2024/02/05 02:57:19;;;;;;;;;2.00;2.00;;;;;11.35;69.32;102593.78;5024827;28;69472;-47
2024/02/05 02:59:44;;;;;;;;;3.67;2.00;;;;;11.34;69.50;102592.06;5028649;28;72591;-49
2024/02/05 03:02:09;;;;;;;;;2.67;2.00;;;;;11.34;69.48;102594.75;5032231;28;70843;-49
2024/02/05 03:04:35;;;;;;;;;6.00;1.00;;;;;11.32;69.54;102596.56;5032774;28;69113;-50
2024/02/05 03:07:00;;;;;;;;;2.67;2.67;;;;;11.32;69.31;102593.03;5028643;28;66276;-47
2024/02/05 03:09:25;;;;;;;;;2.00;1.33;;;;;11.31;69.53;102596.59;5030822;28;51940;-46
2024/02/05 03:11:51;;;;;;;;;4.67;2.00;;;;;11.32;69.56;102591.22;5023999;28;70895;-51
2024/02/05 03:14:16;;;;;;;;;2.33;2.00;;;;;11.32;69.57;102588.56;5020820;28;45471;-48
2024/02/05 03:16:41;;;;;;;;;1.00;1.00;;;;;11.34;69.37;102588.50;5020681;28;69135;-48
2024/02/05 03:19:07;;;;;;;;;2.00;1.00;;;;;11.33;69.41;102600.97;5031304;28;71289;-50
2024/02/05 03:21:32;;;;;;;;;3.00;3.00;;;;;11.34;69.34;102589.41;5034594;28;67620;-48
2024/02/05 03:23:57;;;;;;;;;0.67;0.67;;;;;11.35;69.30;102590.28;5031827;28;65237;-47
2024/02/05 03:26:23;;;;;;;;;2.00;2.00;;;;;11.34;69.41;102589.41;5024972;28;59884;-49
2024/02/05 03:28:48;;;;;;;;;2.00;1.00;;;;;11.32;69.45;102583.22;5022507;28;45376;-49
2024/02/05 03:31:13;;;;;;;;;4.67;2.67;;;;;11.34;69.31;102583.19;5026693;28;67373;-46
2024/02/05 03:33:39;;;;;;;;;2.33;1.00;;;;;11.33;69.72;102585.00;5022584;28;69474;-47
2024/02/05 03:36:04;;;;;;;;;6.33;3.00;;;;;11.36;69.42;102592.03;5021048;28;45506;-46
2024/02/05 03:38:30;;;;;;;;;2.00;1.33;;;;;11.36;69.22;102586.69;5024083;28;45932;-51
2024/02/05 03:40:56;;;;;;;;;5.00;2.00;;;;;11.35;69.14;102585.81;5018977;28;45475;-51
2024/02/05 03:43:21;;;;;;;;;8.00;2.00;;;;;11.33;69.21;102587.66;5025215;28;45837;-48
2024/02/05 03:45:46;;;;;;;;;3.00;1.00;;;;;11.33;69.27;102592.97;5027501;28;65559;-48
2024/02/05 03:48:12;;;;;;;;;0.67;0.67;;;;;11.34;69.24;102583.19;5021971;28;46309;-47
2024/02/05 03:50:37;;;;;;;;;3.33;2.33;;;;;11.33;69.07;102584.09;5027032;28;72367;-47
2024/02/05 03:53:02;;;;;;;;;3.67;1.33;;;;;11.34;69.07;102594.75;5024464;28;45578;-48
2024/02/05 03:55:28;;;;;;;;;1.33;0.33;;;;;11.35;69.18;102598.25;5032944;28;46355;-49
2024/02/05 03:58:00;;;;;;;;;3.67;3.00;;;;;11.34;69.11;102589.41;5029154;28;74435;-47
2024/02/05 04:00:26;;;;;;;;;3.67;2.00;;;;;11.36;69.24;102592.03;5031147;28;45464;-47
2024/02/05 04:02:52;;;;;;;;;2.00;2.00;;;;;11.34;69.13;102583.19;5024774;28;45468;-47
2024/02/05 04:05:18;;;;;;;;;5.00;1.00;;;;;11.34;68.97;102583.19;5036056;28;45466;-50
2024/02/05 04:07:43;;;;;;;;;1.00;1.00;;;;;11.35;69.05;102580.47;5022978;28;46319;-50
2024/02/05 04:10:09;;;;;;;;;4.00;2.00;;;;;11.34;68.73;102581.41;5032391;28;51978;-48
2024/02/05 04:12:34;;;;;;;;;2.67;1.00;;;;;11.35;68.91;102576.94;5031277;28;45475;-48
2024/02/05 04:15:00;;;;;;;;;3.00;1.67;;;;;11.35;68.76;102588.47;5005494;28;45388;-48
2024/02/05 04:17:25;;;;;;;;;1.50;1.50;;;;;11.34;68.81;102580.53;5025237;28;46183;-46
2024/02/05 04:19:51;;;;;;;;;3.00;2.00;;;;;11.34;68.83;102584.09;5018627;28;46478;-49
2024/02/05 04:22:16;;;;;;;;;1.00;1.00;;;;;11.34;68.75;102583.19;5019563;28;45485;-47
2024/02/05 04:24:41;;;;;;;;;2.00;2.00;;;;;11.35;68.82;102576.94;5018802;28;45418;-47
2024/02/05 04:27:07;;;;;;;;;4.33;2.33;;;;;11.34;68.61;102565.44;5027421;28;73639;-49
2024/02/05 04:29:33;;;;;;;;;0.33;0.33;;;;;11.36;68.72;102581.38;5023718;28;45680;-48
2024/02/05 04:31:59;;;;;;;;;3.00;3.00;;;;;11.36;68.69;102576.91;5023855;28;45467;-48
2024/02/05 04:34:25;;;;;;;;;5.67;2.67;;;;;11.36;68.50;102570.72;5034902;28;45450;-46
2024/02/05 04:36:52;;;;;;;;;3.67;1.67;;;;;11.33;68.57;102574.34;5024565;28;46012;-50
2024/02/05 04:39:18;;;;;;;;;4.67;3.00;;;;;11.30;68.55;102573.53;5046671;28;45418;-48
2024/02/05 04:41:44;;;;;;;;;3.33;2.67;;;;;11.28;68.11;102581.56;5027146;28;45451;-47
2024/02/05 04:44:09;;;;;;;;;9.00;3.33;;;;;11.25;68.08;102585.19;5044506;28;67227;-47
2024/02/05 04:46:35;;;;;;;;;4.33;2.33;;;;;11.23;68.46;102578.13;5043390;28;75751;-47
2024/02/05 04:49:00;;;;;;;;;4.33;3.00;;;;;11.24;68.16;102580.75;5048549;28;45693;-48
2024/02/05 04:51:26;;;;;;;;;4.67;3.00;;;;;11.22;68.35;102587.94;5042400;28;45796;-47
2024/02/05 04:53:51;;;;;;;;;3.00;3.00;;;;;11.20;68.45;102592.41;5038124;28;70551;-47
2024/02/05 04:56:16;;;;;;;;;3.00;2.00;;;;;11.19;68.23;102595.09;5026082;28;46309;-47
2024/02/05 04:58:42;;;;;;;;;3.67;3.00;;;;;11.20;68.43;102599.53;5045118;28;45419;-46
2024/02/05 05:01:07;;;;;;;;;1.33;1.33;;;;;11.19;68.32;102589.78;5045360;28;68165;-46
2024/02/05 05:03:35;;;;;;;;;2.00;2.00;;;;;11.18;68.32;102588.88;5043402;28;67991;-46
2024/02/05 05:06:01;;;;;;;;;5.00;3.00;;;;;11.18;68.44;102580.91;5040567;28;45435;-49
2024/02/05 05:08:26;;;;;;;;;3.33;3.33;;;;;11.17;68.31;102581.84;5044998;28;45380;-47
2024/02/05 05:10:52;;;;;;;;;3.67;1.00;;;;;11.17;68.29;102588.94;5040682;28;45560;-46
2024/02/05 05:13:17;;;;;;;;;5.00;3.00;;;;;11.16;68.28;102577.41;5044764;28;45492;-46
2024/02/05 05:15:42;;;;;;;;;6.67;4.00;;;;;11.14;68.24;102573.03;5041309;28;75652;-48
2024/02/05 05:18:08;;;;;;;;;3.33;2.67;;;;;11.12;68.26;102574.84;5029795;28;67876;-47
2024/02/05 05:20:34;;;;;;;;;5.33;4.00;;;;;11.12;68.18;102572.19;5031482;28;46033;-46
2024/02/05 05:22:59;;;;;;;;;2.00;2.00;;;;;11.13;68.04;102573.94;5055340;28;45498;-49
2024/02/05 05:25:25;;;;;;;;;7.00;3.00;;;;;11.13;68.18;102574.81;5048446;28;46918;-49
2024/02/05 05:27:50;;;;;;;;;3.00;1.33;;;;;11.09;67.86;102578.47;5046250;28;45400;-47
2024/02/05 05:30:16;;;;;;;;;2.67;2.33;;;;;11.07;68.04;102572.31;5043901;28;69299;-49
2024/02/05 05:32:41;;;;;;;;;3.00;3.00;;;;;11.06;67.91;102573.22;5042322;28;45456;-46
2024/02/05 05:35:07;;;;;;;;;3.33;3.33;;;;;11.04;68.15;102572.38;5048154;28;74730;-51
2024/02/05 05:37:32;;;;;;;;;4.00;3.00;;;;;11.04;67.97;102573.25;5037317;28;45462;-51
2024/02/05 05:39:59;;;;;;;;;3.33;2.00;;;;;11.06;68.38;102566.09;5048150;28;45710;-46
2024/02/05 05:42:25;;;;;;;;;2.00;1.33;;;;;11.06;68.23;102568.75;5045590;28;45739;-51
2024/02/05 05:44:51;;;;;;;;;2.67;2.67;;;;;11.06;68.17;102555.44;5049242;28;45307;-49
2024/02/05 05:47:17;;;;;;;;;5.00;3.33;;;;;11.06;68.15;102559.91;5046796;28;45727;-49
2024/02/05 05:49:42;;;;;;;;;4.00;3.00;;;;;11.03;68.01;102558.19;5045794;28;45518;-48
2024/02/05 05:52:08;;;;;;;;;5.00;2.00;;;;;11.03;68.11;102559.97;5034170;28;53088;-48
2024/02/05 05:54:33;;;;;;;;;4.00;4.00;;;;;11.04;68.11;102557.28;5048251;28;74508;-46
2024/02/05 05:57:00;;;;;;;;;1.67;1.67;;;;;11.03;68.10;102557.28;5048622;28;54890;-48
2024/02/05 05:59:25;;;;;;;;;2.00;0.33;;;;;11.00;68.16;102555.63;5038410;28;45540;-46
2024/02/05 06:01:51;;;;;;;;;6.00;4.00;;;;;10.98;68.06;102554.75;5035264;28;45542;-46
2024/02/05 06:04:16;;;;;;;;;8.00;5.00;;;;;10.97;68.05;102553.00;5041392;28;75483;-48
2024/02/05 06:06:41;;;;;;;;;7.67;5.00;;;;;10.98;67.81;102548.56;5054551;28;73383;-47
2024/02/05 06:09:06;;;;;;;;;8.00;4.00;;;;;10.94;68.03;102547.75;5047318;28;58186;-53
2024/02/05 06:11:32;;;;;;;;;3.67;3.33;;;;;10.93;67.88;102546.00;5029267;28;45487;-47
2024/02/05 06:13:57;;;;;;;;;4.00;3.00;;;;;10.88;67.55;102543.44;5052496;28;46217;-46
2024/02/05 06:16:23;;;;;;;;;5.00;5.00;;;;;10.86;67.88;102542.63;5024232;28;72062;-47
2024/02/05 06:18:50;;;;;;;;;5.00;3.00;;;;;10.86;67.77;102549.72;5043072;28;45403;-47
2024/02/05 06:21:15;;;;;;;;;6.00;4.00;;;;;10.84;67.83;102540.91;5053710;28;45605;-48
2024/02/05 06:23:41;;;;;;;;;2.67;2.67;;;;;10.83;67.97;102548.00;5034893;28;46193;-49
2024/02/05 06:26:08;;;;;;;;;6.00;4.67;;;;;10.84;68.00;102547.09;5049460;28;67374;-47
2024/02/05 06:28:34;;;;;;;;;6.67;5.33;;;;;10.85;67.96;102547.97;5051408;28;45253;-47
2024/02/05 06:30:59;;;;;;;;;4.00;4.00;;;;;10.84;67.94;102555.06;5035498;28;45578;-47
2024/02/05 06:33:25;;;;;;;;;9.00;4.67;;;;;10.80;67.94;102547.22;5048220;28;46021;-48
2024/02/05 06:35:50;;;;;;;;;4.33;4.33;;;;;10.75;68.05;102542.88;5047550;28;45431;-48
2024/02/05 06:38:15;;;;;;;;;7.33;6.00;;;;;10.74;68.19;102548.22;5046880;28;61253;-50
2024/02/05 06:40:41;;;;;;;;;5.67;4.00;;;;;10.75;68.03;102547.31;5040051;28;66726;-50
2024/02/05 06:43:07;;;;;;;;;4.33;3.33;;;;;10.75;68.26;102542.88;5050675;28;46495;-50
2024/02/05 06:45:35;;;;;;;;;5.67;4.00;;;;;10.76;68.20;102539.28;5047070;28;45551;-50
2024/02/05 06:48:01;;;;;;;;;5.67;4.33;;;;;10.79;68.37;102543.66;5047334;28;45550;-50
2024/02/05 06:50:26;;;;;;;;;6.33;5.33;;;;;10.82;68.29;102543.59;5051339;28;67443;-48
2024/02/05 06:52:52;;;;;;;;;12.00;6.00;;;;;10.84;68.35;102544.44;5043631;28;46304;-52
2024/02/05 06:55:18;;;;;;;;;7.33;6.33;;;;;10.85;68.13;102538.19;5042115;28;45447;-50
2024/02/05 06:57:43;;;;;;;;;6.00;4.00;;;;;10.84;68.21;102541.75;5037020;28;45493;-46
2024/02/05 07:00:10;;;;;;;;;7.33;5.00;;;;;10.84;68.04;102535.56;5035126;28;45664;-46
2024/02/05 07:02:35;;;;;;;;;6.00;4.00;;;;;10.84;68.15;102538.25;5047654;28;47129;-46
2024/02/05 07:05:01;;;;;;;;;5.00;4.33;;;;;10.85;68.29;102542.66;5049035;28;45790;-47
2024/02/05 07:07:27;;;;;;;;;10.00;6.33;;;;;10.89;68.35;102537.22;5050668;28;45905;-47
2024/02/05 07:09:52;;;;;;;;;6.33;6.00;;;;;10.90;68.28;102535.44;5052933;28;45469;-46
2024/02/05 07:12:18;;;;;;;;;6.67;5.00;;;;;10.89;68.30;102539.00;5054918;28;46361;-50
2024/02/05 07:14:43;;;;;;;;;7.00;5.33;;;;;10.87;68.14;102533.72;5050538;28;45480;-49
2024/02/05 07:17:09;;;;;;;;;8.33;5.33;;;;;10.84;68.15;102530.25;5045789;28;63239;-50
2024/02/05 07:19:34;;;;;;;;;8.00;6.00;;;;;10.80;68.08;102541.88;5047612;28;70001;-46
2024/02/05 07:21:59;;;;;;;;;8.33;6.00;;;;;10.79;68.29;102533.00;5045586;28;46081;-48
2024/02/05 07:24:25;;;;;;;;;10.67;7.67;;;;;10.81;68.55;102543.63;5043015;28;72614;-46
2024/02/05 07:26:51;;;;;;;;;8.33;6.67;;;;;10.82;68.25;102540.94;5055689;28;68599;-48
2024/02/05 07:29:16;;;;;;;;;10.67;5.00;;;;;10.80;68.28;102540.09;5042804;28;45389;-45
2024/02/05 07:31:41;;;;;;;;;8.33;6.00;;;;;10.75;68.17;102542.88;5048224;28;46282;-48
2024/02/05 07:34:07;;;;;;;;;7.33;4.67;;;;;10.70;68.11;102534.13;5043399;28;45415;-46
2024/02/05 07:36:32;;;;;;;;;7.00;6.00;;;;;10.65;68.43;102548.41;5054231;28;45916;-47
2024/02/05 07:38:57;;;;;;;;;11.00;6.00;;;;;10.62;68.49;102543.19;5054709;28;45518;-46
2024/02/05 07:41:23;;;;;;;;;7.00;5.33;;;;;10.60;68.33;102551.19;5049218;28;76706;-48
2024/02/05 07:43:48;;;;;;;;;8.67;5.67;;;;;10.56;68.61;102542.41;5047070;28;52564;-49
2024/02/05 07:46:13;;;;;;;;;7.67;6.00;;;;;10.57;68.43;102543.25;5009836;28;45485;-47
2024/02/05 07:48:39;;;;;;;;;9.67;6.33;;;;;10.54;68.53;102536.22;5050724;28;48197;-46
2024/02/05 07:51:04;;;;;;;;;7.00;3.67;;;;;10.56;68.42;102533.56;5038947;28;46271;-45
2024/02/05 07:53:30;;;;;;;;;9.00;7.00;;;;;10.57;68.71;102533.53;5049903;28;45584;-44
2024/02/05 07:55:56;;;;;;;;;9.33;6.00;;;;;10.59;68.55;102523.69;5046117;28;45466;-47
2024/02/05 07:58:21;;;;;;;;;9.67;5.00;;;;;10.61;68.63;102526.31;5032413;28;45501;-45
2024/02/05 08:00:47;;;;;;;;;7.00;5.00;;;;;10.62;68.65;102528.06;5020649;28;47295;-45
2024/02/05 08:03:13;;;;;;;;;8.67;6.00;;;;;10.64;68.59;102523.59;5040362;28;45341;-49
2024/02/05 08:05:38;;;;;;;;;7.00;6.00;;;;;10.66;68.62;102527.09;5050387;28;45638;-44
2024/02/05 08:08:04;;;;;;;;;11.67;8.67;;;;;10.69;68.72;102528.81;5042959;28;45471;-45
2024/02/05 08:10:29;;;;;;;;;10.00;6.67;;;;;10.73;68.79;102520.72;5052564;28;46950;-44
2024/02/05 08:12:54;;;;;;;;;10.67;7.67;;;;;10.79;68.72;102524.16;5048468;28;71036;-45
2024/02/05 08:15:20;;;;;;;;;11.67;8.00;;;;;10.82;68.52;102519.66;5040848;28;60836;-45
2024/02/05 08:17:46;;;;;;;;;7.00;6.00;;;;;10.86;68.50;102528.41;5053545;28;61165;-47
2024/02/05 08:20:13;;;;;;;;;4.00;2.33;;;;;10.87;68.37;102525.75;5048809;28;45448;-44
2024/02/05 08:22:38;;;;;;;;;9.00;6.67;;;;;10.91;68.38;102518.53;5053274;28;45516;-48
2024/02/05 08:25:04;;;;;;;;;11.00;6.67;;;;;10.96;68.11;102535.28;5049665;28;45850;-45
2024/02/05 08:27:29;;;;;;;;;6.33;4.00;;;;;10.99;68.44;102532.56;5052018;28;45603;-45
2024/02/05 08:29:55;;;;;;;;;8.33;6.67;;;;;10.99;68.15;102531.66;5039743;28;74366;-46
2024/02/05 08:32:20;;;;;;;;;3.00;3.00;;;;;10.97;68.19;102531.69;5046033;28;71843;-45
2024/02/05 08:34:45;;;;;;;;;8.00;6.00;;;;;10.95;67.92;102533.53;5033297;28;66778;-46
2024/02/05 08:37:11;;;;;;;;;7.00;5.00;;;;;10.92;67.92;102525.59;5047219;28;45384;-45
2024/02/05 08:39:36;;;;;;;;;8.00;7.00;;;;;10.88;67.61;102530.13;5034069;28;70288;-46
2024/02/05 08:42:01;;;;;;;;;7.00;5.00;;;;;10.86;67.57;102528.41;5030110;28;72900;-46
2024/02/05 08:44:27;;;;;;;;;8.33;6.00;;;;;10.85;67.85;102532.88;5044853;28;45425;-46
2024/02/05 08:46:53;;;;;;;;;11.00;7.00;;;;;10.86;67.74;102528.41;5049024;28;45746;-47
2024/02/05 08:49:19;;;;;;;;;7.33;6.33;;;;;10.87;67.85;102531.06;5040730;28;45455;-46
2024/02/05 08:51:44;;;;;;;;;7.00;7.00;;;;;10.89;67.72;102528.34;5033517;28;45788;-48
2024/02/05 08:54:10;;;;;;;;;7.67;6.00;;;;;10.92;67.76;102529.16;5043106;28;61209;-44
2024/02/05 08:56:35;;;;;;;;;9.00;6.00;;;;;10.97;67.55;102530.84;5055010;28;45574;-47
2024/02/05 08:59:01;;;;;;;;;6.00;4.67;;;;;10.93;67.51;102528.22;5040125;28;46141;-47
2024/02/05 09:01:26;;;;;;;;;8.33;6.67;;;;;10.94;67.49;102523.81;5037475;28;46686;-48
2024/02/05 09:03:51;;;;;;;;;6.00;5.00;;;;;10.93;67.41;102524.72;5046250;28;62991;-44
2024/02/05 09:06:16;;;;;;;;;6.00;5.00;;;;;10.95;67.72;102525.56;5042745;28;61238;-46
2024/02/05 09:08:42;;;;;;;;;10.00;6.33;;;;;11.00;67.47;102526.31;5044092;28;47366;-45
2024/02/05 09:11:08;;;;;;;;;9.00;7.33;;;;;11.03;67.62;102526.22;5026588;28;45566;-50
2024/02/05 09:13:33;;;;;;;;;5.67;5.00;;;;;11.06;67.33;102528.81;5023675;28;45748;-46
2024/02/05 09:15:58;;;;;;;;;8.33;5.00;;;;;11.07;67.02;102522.56;5043679;28;69409;-46
2024/02/05 09:18:24;;;;;;;;;8.33;4.67;;;;;11.04;67.14;102517.34;5043193;28;46156;-48
2024/02/05 09:20:50;;;;;;;;;8.67;5.00;;;;;11.04;66.99;102530.66;5051948;28;45482;-47
2024/02/05 09:23:16;;;;;;;;;9.33;6.00;;;;;11.08;66.75;102523.44;5055195;28;45423;-48
2024/02/05 09:25:41;;;;;;;;;8.67;5.67;;;;;11.10;66.66;102521.63;5047362;28;66177;-46
2024/02/05 09:28:10;;;;;;;;;6.00;6.00;;;;;11.09;66.64;102525.19;5049273;28;47136;-46
2024/02/05 09:30:38;;;;;;;;;5.33;5.33;;;;;11.08;66.49;102528.75;5041208;28;45389;-47
2024/02/05 09:33:04;;;;;;;;;9.33;4.33;;;;;11.09;66.63;102526.09;5049197;28;45476;-45
2024/02/05 09:35:29;;;;;;;;;5.00;5.00;;;;;11.11;66.43;102527.81;5034199;28;45543;-46
2024/02/05 09:37:55;;;;;;;;;9.33;4.00;;;;;11.11;66.44;102526.03;5045409;28;46386;-47
2024/02/05 09:40:20;;;;;;;;;5.33;5.33;;;;;11.13;66.45;102531.31;5041092;28;61336;-45
2024/02/05 09:42:46;;;;;;;;;4.67;4.67;;;;;11.16;66.58;102537.47;5051311;28;67091;-46
2024/02/05 09:45:15;;;;;;;;;10.00;5.00;;;;;11.18;66.58;102530.28;5028221;28;45542;-45
2024/02/05 09:47:43;;;;;;;;;11.33;7.00;;;;;11.19;66.23;102536.50;5055501;28;46213;-45
2024/02/05 09:50:11;;;;;;;;;10.00;6.00;;;;;11.16;66.46;102534.81;5033519;28;45706;-44
2024/02/05 09:52:39;;;;;;;;;10.00;8.00;;;;;11.20;66.51;102532.94;5032533;28;45337;-47
2024/02/05 09:55:07;;;;;;;;;7.67;6.33;;;;;11.23;66.42;102539.03;5030063;28;45778;-46
2024/02/05 09:57:34;;;;;;;;;9.00;6.67;;;;;11.25;66.09;102531.00;5030987;28;46507;-45
2024/02/05 10:00:00;;;;;;;;;12.67;7.00;;;;;11.23;65.91;102533.72;5025214;28;73403;-44
2024/02/05 10:02:26;;;;;;;;;10.67;7.00;;;;;11.25;66.00;102533.66;5047869;28;45351;-46
2024/02/05 10:04:51;;;;;;;;;6.67;6.67;;;;;11.30;65.95;102533.56;5033500;28;45773;-45
2024/02/05 10:07:18;;;;;;;;;10.00;7.33;;;;;11.33;65.91;102525.47;5028097;28;45592;-45
2024/02/05 10:09:46;;;;;;;;;8.00;7.67;;;;;11.40;65.74;102527.94;5036745;28;45462;-47
2024/02/05 10:12:12;;;;;;;;;9.33;7.00;;;;;11.45;65.69;102524.31;5052926;28;45577;-46
2024/02/05 10:14:38;;;;;;;;;9.00;8.00;;;;;11.48;65.62;102517.09;5046913;28;45505;-48
2024/02/05 10:17:03;;;;;;;;;15.67;9.67;;;;;11.51;65.74;102516.13;5017907;28;47318;-45
2024/02/05 10:19:30;;;;;;;;;6.67;6.67;;;;;11.51;65.49;102516.13;5041907;28;45588;-46
2024/02/05 10:21:56;;;;;;;;;8.67;8.33;;;;;11.46;65.16;102520.72;5050187;28;45542;-47
2024/02/05 10:24:22;;;;;;;;;11.00;10.00;;;;;11.42;65.24;102519.94;5024225;28;45522;-47
2024/02/05 10:26:48;;;;;;;;;16.33;12.00;;;;;11.36;65.00;102507.63;5047635;28;46193;-46
2024/02/05 10:29:14;;;;;;;;;22.00;14.33;;;;;11.31;65.11;102519.34;5048715;28;45453;-49
2024/02/05 10:31:50;;;;;;;;;9.67;9.00;;;;;11.28;65.44;102517.63;5046610;28;45429;-47
2024/02/05 10:34:16;;;;;;;;;24.67;11.67;;;;;11.29;65.35;102527.38;5045504;28;45295;-49
2024/02/05 10:36:42;;;;;;;;;15.00;12.67;;;;;11.31;65.29;102514.00;5053066;28;46340;-47
2024/02/05 10:39:07;;;;;;;;;14.00;12.33;;;;;11.34;64.98;102520.13;5048418;28;72979;-46
2024/02/05 10:41:32;;;;;;;;;10.33;9.33;;;;;11.38;65.22;102516.47;5034860;28;45519;-47
2024/02/05 10:43:58;;;;;;;;;11.67;11.67;;;;;11.38;64.95;102516.47;5040196;28;67147;-46
2024/02/05 10:46:33;;;;;;;;;14.67;13.00;;;;;11.38;64.88;102507.59;5047500;28;75712;-44
2024/02/05 10:49:01;;;;;;;;;18.33;12.33;;;;;11.35;64.84;102507.69;5048492;28;45336;-46
2024/02/05 10:51:27;;;;;;;;;22.00;14.00;;;;;11.35;64.88;102505.03;5053137;28;45431;-46
2024/02/05 10:53:53;;;;;;;;;13.00;10.67;;;;;11.34;64.84;102503.25;5050330;28;45460;-46
2024/02/05 10:56:19;;;;;;;;;17.00;14.00;;;;;11.35;64.38;102513.88;5043946;28;45955;-44
2024/02/05 10:58:44;;;;;;;;;15.33;12.33;;;;;11.34;64.66;102504.16;5029918;28;45441;-45
2024/02/05 11:01:10;;;;;;;;;21.33;14.33;;;;;11.32;64.61;102500.66;5031012;28;68000;-44
2024/02/05 11:03:37;;;;;;;;;18.33;12.67;;;;;11.32;64.88;102499.78;5022696;28;45357;-48
2024/02/05 11:06:05;;;;;;;;;14.67;13.33;;;;;11.35;64.94;102495.22;5039216;28;45611;-47
2024/02/05 11:08:35;;;;;;;;;17.00;13.33;;;;;11.41;64.98;102494.22;5024325;28;45513;-44
2024/02/05 11:11:06;;;;;;;;;17.00;13.67;;;;;11.49;64.64;102496.66;5052149;28;45731;-46
2024/02/05 11:13:35;;;;;;;;;22.00;13.00;;;;;11.53;64.58;102490.34;5031641;28;45689;-47
2024/02/05 11:16:01;;;;;;;;;24.00;13.00;;;;;11.57;64.42;102495.53;5024926;28;46286;-43
2024/02/05 11:18:30;;;;;;;;;12.33;10.00;;;;;11.58;63.90;102481.28;5048603;28;60104;-48